Time;durP1;ratioP1;P1;durP2;ratioP2;P2;SDS_P1;SDS_P2;PMS_P1;PMS_P2;Temp;Humidity;BMP_temperature;BMP_pressure;BME280_temperature;BME280_humidity;BME280_pressure;Samples;Min_cycle;Max_cycle;Signal;HPM_P1;HPM_P2
2022/02/09 00:04:29;;;;;;;18.33;9.38;;;;;;;5.98;61.51;102203.22;5007235;28;20034;-73
2022/02/09 00:09:20;;;;;;;29.38;10.20;;;;;;;6.49;60.13;102206.69;5020651;28;20034;-73
2022/02/09 00:12:03;;;;;;;14.45;8.60;;;;;;;5.98;61.15;102216.19;5012224;28;20049;-73
2022/02/09 00:14:58;;;;;;;;;;;;;;;5.74;62.13;102214.41;5006636;28;20032;-72
2022/02/09 00:44:30;;;;;;;13.60;8.57;;;;;;;5.77;61.62;102221.34;5017461;28;20057;-73
2022/02/09 01:42:10;;;;;;;15.57;7.88;;;;;;;6.32;59.98;102199.78;5003925;28;20538;-72
2022/02/09 01:57:03;;;;;;;24.27;8.68;;;;;;;6.63;59.58;102185.00;5002184;28;20042;-71
2022/02/09 01:59:31;;;;;;;18.90;7.78;;;;;;;6.09;60.88;102195.44;5008337;28;20480;-71
2022/02/09 02:01:57;;;;;;;18.80;8.88;;;;;;;6.61;59.33;102185.00;4984372;28;20042;-71
2022/02/09 02:04:25;;;;;;;17.52;9.35;;;;;;;5.91;61.50;102191.09;5010581;28;20057;-71
2022/02/09 02:06:55;;;;;;;17.00;8.27;;;;;;;6.31;60.65;102185.94;4999191;28;20081;-71
2022/02/09 02:09:34;;;;;;;15.00;7.97;;;;;;;6.26;60.37;102179.81;5009850;28;20284;-71
2022/02/09 02:12:09;;;;;;;14.27;7.68;;;;;;;5.70;62.14;102185.88;5002046;28;20112;-71
2022/02/09 02:17:18;;;;;;;17.10;7.63;;;;;;;6.49;59.74;102185.03;5005938;28;20041;-71
2022/02/09 02:19:51;;;;;;;18.33;7.78;;;;;;;5.97;61.28;102183.31;5020247;28;20398;-71
2022/02/09 02:32:37;;;;;;;14.75;8.40;;;;;;;6.23;60.44;102153.88;5003442;28;20045;-73
2022/02/09 03:15:28;;;;;;;16.77;8.02;;;;;;;5.98;60.21;102104.59;5011998;28;20042;-77
2022/02/09 03:20:41;;;;;;;17.98;7.20;;;;;;;6.35;58.63;102096.78;5025043;28;20406;-74
2022/02/09 03:24:13;;;;;;;11.93;6.60;;;;;;;5.21;62.01;102104.56;5012098;28;20132;-74
2022/02/09 03:42:35;;;;;;;9.52;5.07;;;;;;;5.96;59.10;102102.88;5003243;28;20076;-73
2022/02/09 03:58:16;;;;;;;14.18;5.13;;;;;;;6.05;58.08;102095.91;5004592;28;20094;-73
2022/02/09 04:00:48;;;;;;;6.82;4.28;;;;;;;5.42;59.71;102087.31;5001715;28;20485;-73
2022/02/09 04:03:22;;;;;;;11.23;4.32;;;;;;;6.08;57.91;102075.16;4984322;28;20064;-73
2022/02/09 04:05:50;;;;;;;12.80;4.63;;;;;;;5.80;59.04;102086.44;4992595;28;20053;-73
2022/02/09 04:08:27;;;;;;;9.27;4.85;;;;;;;6.09;57.93;102076.03;5003067;28;20134;-72
2022/02/09 04:11:11;;;;;;;10.00;4.32;;;;;;;6.00;57.98;102071.72;5006524;28;20033;-73
2022/02/09 04:13:49;;;;;;;12.38;4.22;;;;;;;5.82;58.63;102072.59;5025429;28;20157;-73
2022/02/09 04:18:58;;;;;;;16.02;4.63;;;;;;;5.82;58.17;102082.13;5011537;28;20046;-74
2022/02/09 04:38:17;;;;;;;12.20;4.68;;;;;;;6.15;57.45;102059.56;5025478;28;20038;-72
2022/02/09 04:51:41;;;;;;;9.65;4.00;;;;;;;5.72;58.39;102049.25;5029070;28;20045;-74
2022/02/09 04:57:03;;;;;;;15.32;4.53;;;;;;;5.89;57.65;102063.09;4996252;28;20103;-74
2022/02/09 04:59:51;;;;;;;14.52;3.47;;;;;;;5.67;58.19;102057.91;5009598;28;20315;-75
2022/02/09 05:24:19;;;;;;;13.45;3.72;;;;;;;4.94;62.47;102057.84;5023763;28;20075;-72
2022/02/09 05:27:00;;;;;;;9.70;3.20;;;;;;;5.45;60.63;102051.84;5018856;28;20143;-73
2022/02/09 05:29:30;;;;;;;11.65;3.75;;;;;;;5.40;60.74;102042.34;5002969;28;20075;-73
2022/02/09 05:31:58;;;;;;;7.10;3.35;;;;;;;5.80;59.42;102039.75;4995755;28;20523;-75
2022/02/09 05:34:24;;;;;;;23.00;4.35;;;;;;;5.83;59.42;102047.50;5003740;28;20030;-75
2022/02/09 05:36:49;;;;;;;11.88;3.35;;;;;;;5.63;59.76;102040.59;5010605;28;20045;-73
2022/02/09 05:39:15;;;;;;;11.93;3.83;;;;;;;5.61;59.10;102050.16;5023478;28;20033;-73
2022/02/09 05:41:45;;;;;;;7.35;3.72;;;;;;;6.11;57.40;102044.88;5023302;28;20099;-72
2022/02/09 05:44:13;;;;;;;7.03;3.53;;;;;;;5.69;59.03;102049.28;5007219;28;20037;-73
2022/02/09 05:47:41;;;;;;;5.97;3.90;;;;;;;5.99;57.59;102045.75;4997945;28;20425;-72
2022/02/09 05:49:49;;;;;;;13.70;3.95;;;;;;;5.23;59.38;102038.03;5021628;28;20037;-73
2022/02/09 05:52:25;;;;;;;10.48;3.90;;;;;;;5.66;58.21;102035.44;5008491;28;20567;-72
2022/02/09 05:59:52;;;;;;;10.13;3.42;;;;;;;5.59;58.28;102015.56;5004145;28;20041;-72
2022/02/09 06:02:28;;;;;;;9.00;3.50;;;;;;;5.78;57.62;102018.13;4998702;28;20041;-72
2022/02/09 06:04:53;;;;;;;16.67;4.43;;;;;;;5.17;59.51;102025.06;5012786;28;20030;-72
2022/02/09 06:07:21;;;;;;;8.45;3.22;;;;;;;5.85;56.99;102020.69;5003438;28;20501;-73
2022/02/09 06:09:47;;;;;;;12.27;3.97;;;;;;;5.19;59.19;102010.38;5007346;28;20038;-72
2022/02/09 06:12:29;;;;;;;9.32;4.30;;;;;;;5.75;57.75;102019.00;5004613;28;20033;-73
2022/02/09 06:15:17;;;;;;;8.95;3.95;;;;;;;5.40;58.59;102016.44;5005676;28;20068;-72
2022/02/09 06:20:29;;;;;;;11.25;3.22;;;;;;;5.32;58.33;102018.16;5004058;28;21782;-71
2022/02/09 06:22:58;;;;;;;11.90;4.30;;;;;;;4.84;59.09;102011.16;4996696;28;20052;-74
2022/02/09 06:25:26;;;;;;;10.02;3.60;;;;;;;5.43;58.41;102017.28;5024561;28;20033;-74
2022/02/09 06:27:51;;;;;;;10.30;3.67;;;;;;;5.35;58.51;102031.13;5009170;28;20071;-72
2022/02/09 06:30:19;;;;;;;10.32;3.50;;;;;;;5.56;57.72;102027.66;4999773;28;20042;-72
2022/02/09 06:32:44;;;;;;;8.00;3.10;;;;;;;5.18;58.69;102010.38;4997736;28;20049;-74
2022/02/09 06:35:10;;;;;;;8.70;3.10;;;;;;;5.20;58.48;102013.81;5002756;28;20080;-74
2022/02/09 06:37:44;;;;;;;7.32;2.75;;;;;;;5.70;57.38;102019.84;4999810;28;20085;-72
2022/02/09 06:40:11;;;;;;;11.40;4.30;;;;;;;5.45;57.90;102009.50;5018361;28;20038;-72
2022/02/09 06:42:39;;;;;;;10.82;3.03;;;;;;;5.30;58.09;102015.56;5007440;28;20454;-73
2022/02/09 06:45:13;;;;;;;9.50;3.67;;;;;;;5.70;57.17;102025.03;5037237;28;20483;-75
2022/02/09 06:47:39;;;;;;;8.75;3.47;;;;;;;5.70;57.02;102019.84;5019913;28;20045;-73
2022/02/09 06:50:10;;;;;;;9.60;3.15;;;;;;;5.24;57.58;102024.19;5031585;28;20048;-73
2022/02/09 06:52:45;;;;;;;9.55;2.40;;;;;;;5.09;58.00;102034.53;5027899;28;20072;-72
2022/02/09 06:55:17;;;;;;;10.60;3.33;;;;;;;5.17;58.41;102027.66;5043255;28;20038;-73
2022/02/09 07:00:19;;;;;;;10.05;2.78;;;;;;;5.48;57.61;102027.66;5026361;28;20033;-72
2022/02/09 07:02:47;;;;;;;9.02;3.65;;;;;;;5.79;56.44;102023.31;5024171;28;20046;-74
2022/02/09 07:05:14;;;;;;;5.57;3.42;;;;;;;5.04;58.68;102031.09;5010111;28;20095;-74
2022/02/09 07:07:41;;;;;;;9.15;3.20;;;;;;;5.07;58.77;102032.81;5006334;28;20485;-73
2022/02/09 07:10:14;;;;;;;9.32;3.33;;;;;;;5.40;57.50;102032.00;5008427;28;20124;-72
2022/02/09 07:12:41;;;;;;;11.45;3.00;;;;;;;5.30;58.00;102014.69;5016234;28;20105;-76
2022/02/09 07:15:10;;;;;;;12.95;4.78;;;;;;;5.32;58.15;102002.59;5021612;28;20029;-75
2022/02/09 07:17:40;;;;;;;6.50;3.38;;;;;;;5.71;56.31;102000.84;5021058;28;20317;-76
2022/02/09 07:20:15;;;;;;;9.85;3.72;;;;;;;5.74;56.36;102012.06;4995410;28;20038;-74
2022/02/09 07:22:44;;;;;;;10.80;3.58;;;;;;;4.98;59.15;102012.94;5012526;28;20074;-73
2022/02/09 07:25:14;;;;;;;12.82;4.30;;;;;;;5.06;58.28;102011.22;5006469;28;20041;-73
2022/02/09 07:27:51;;;;;;;9.57;4.00;;;;;;;5.38;57.78;102018.16;5023569;28;20052;-75
2022/02/09 07:30:22;;;;;;;7.90;3.63;;;;;;;5.41;57.53;102025.91;5010370;28;20474;-75
2022/02/09 07:33:01;;;;;;;12.18;4.20;;;;;;;5.46;57.71;102026.81;4986807;28;20052;-75
2022/02/09 07:35:27;;;;;;;10.70;3.97;;;;;;;4.72;60.08;102024.09;5017903;28;20029;-75
2022/02/09 07:37:52;;;;;;;9.70;3.33;;;;;;;5.50;57.54;102018.13;5025236;28;20060;-75
2022/02/09 07:40:22;;;;;;;12.45;4.78;;;;;;;6.03;55.88;102019.78;5031977;28;20632;-74
2022/02/09 07:42:57;;;;;;;7.38;3.17;;;;;;;5.75;56.48;102023.28;5018364;28;20041;-73
2022/02/09 07:51:13;;;;;;;9.20;4.35;;;;;;;5.46;57.87;102026.81;5033931;28;20676;-73
2022/02/09 07:53:45;;;;;;;8.02;3.83;;;;;;;5.84;56.86;102012.94;5010986;28;20042;-73
2022/02/09 07:56:10;;;;;;;12.93;3.75;;;;;;;5.81;56.81;102023.28;5005945;28;20494;-73
2022/02/09 07:58:36;;;;;;;7.80;2.85;;;;;;;5.55;57.59;102021.63;5004108;28;20049;-75
2022/02/09 08:01:02;;;;;;;9.00;3.25;;;;;;;5.53;57.67;102018.16;5006390;28;20461;-76
2022/02/09 08:03:27;;;;;;;8.38;3.40;;;;;;;5.40;58.04;102029.41;5005722;28;20188;-75
2022/02/09 08:05:55;;;;;;;8.68;2.58;;;;;;;6.09;56.14;102024.13;5008208;28;20453;-75
2022/02/09 08:08:30;;;;;;;14.98;3.65;;;;;;;6.11;56.32;102027.56;5005688;28;20092;-75
2022/02/09 08:11:11;;;;;;;10.27;2.90;;;;;;;6.37;55.35;102019.69;5003942;28;20477;-75
2022/02/09 08:29:47;;;;;;;5.72;1.73;;;;;;;5.24;58.39;102007.78;5032568;28;20064;-75
2022/02/09 08:32:37;;;;;;;5.50;1.17;;;;;;;5.61;57.26;102013.84;5025246;28;20760;-75
2022/02/09 08:35:06;;;;;;;4.93;1.42;;;;;;;5.74;56.82;102029.38;5004064;28;20033;-76
2022/02/09 08:37:31;;;;;;;11.35;1.23;;;;;;;6.12;55.81;102025.84;5011963;28;20032;-75
2022/02/09 08:39:57;;;;;;;7.57;1.58;;;;;;;5.67;57.26;102021.59;5026904;28;20450;-75
2022/02/09 08:42:24;;;;;;;11.23;1.67;;;;;;;5.96;56.39;102018.09;5012744;28;20060;-75
2022/02/09 08:44:50;;;;;;;7.35;0.98;;;;;;;5.81;56.98;102025.88;5012832;28;20094;-75
2022/02/09 08:47:20;;;;;;;5.75;1.52;;;;;;;5.75;57.17;102028.50;5004633;28;20037;-76
2022/02/09 08:49:49;;;;;;;5.75;1.42;;;;;;;5.60;58.25;102021.59;5002251;28;20040;-75
2022/02/09 08:52:18;;;;;;;7.50;1.30;;;;;;;5.53;58.24;102018.16;5007379;28;20053;-76
2022/02/09 08:54:44;;;;;;;9.18;1.35;;;;;;;5.51;58.85;102017.28;5006342;28;20025;-74
2022/02/09 08:57:11;;;;;;;4.40;1.52;;;;;;;5.16;59.73;102032.81;5009106;28;20037;-76
2022/02/09 08:59:38;;;;;;;13.40;1.40;;;;;;;5.03;60.47;102026.75;5024472;28;20048;-75
2022/02/09 09:02:09;;;;;;;8.20;1.75;;;;;;;5.16;61.03;102025.06;5024932;28;20091;-76
2022/02/09 09:04:40;;;;;;;4.22;1.08;;;;;;;5.17;61.20;102031.97;5019395;28;20120;-75
2022/02/09 09:07:11;;;;;;;9.40;1.77;;;;;;;5.84;59.34;102039.75;5009979;28;20068;-75
2022/02/09 09:25:20;;;;;;;7.90;2.22;;;;;;;5.48;60.65;102038.03;5039351;28;20513;-75
2022/02/09 09:40:20;;;;;;;5.00;1.23;;;;;;;5.37;61.21;102037.16;5003086;28;20434;-72
2022/02/09 10:00:02;;;;;;;8.48;2.20;;;;;;;5.32;62.10;102052.69;4994131;28;20410;-73
2022/02/09 10:02:13;;;;;;;4.88;2.13;;;;;;;5.41;61.95;102049.25;4983481;28;21778;-73
2022/02/09 10:33:01;;;;;;;4.55;1.73;;;;;;;5.14;62.21;102063.06;5000662;28;20411;-73
2022/02/09 10:35:34;;;;;;;6.63;1.42;;;;;;;5.67;61.12;102042.34;5000945;28;20068;-73
2022/02/09 10:38:28;;;;;;;6.97;1.85;;;;;;;5.21;62.44;102063.09;5003267;28;20034;-73
2022/02/09 10:40:55;;;;;;;4.63;1.63;;;;;;;5.73;61.17;102057.03;5001285;28;20454;-73
2022/02/09 10:43:28;;;;;;;2.15;1.38;;;;;;;5.30;62.46;102053.56;5002497;28;20037;-73
2022/02/09 10:46:21;;;;;;;7.25;1.95;;;;;;;4.93;63.33;102063.88;4996928;28;20359;-73
2022/02/09 10:48:59;;;;;;;3.88;2.00;;;;;;;5.29;62.49;102064.81;4993013;28;20129;-73
2022/02/09 10:51:37;;;;;;;11.15;2.50;;;;;;;5.32;62.37;102062.22;5021757;28;20021;-72
2022/02/09 10:54:13;;;;;;;8.52;2.75;;;;;;;5.88;60.77;102058.75;5018003;28;20040;-73
2022/02/09 10:56:43;;;;;;;4.60;1.45;;;;;;;5.30;62.68;102048.38;5034650;28;20278;-73
2022/02/09 10:59:10;;;;;;;6.68;1.52;;;;;;;5.56;61.19;102054.44;5028516;28;20039;-73
2022/02/09 11:01:44;;;;;;;4.15;1.52;;;;;;;5.29;62.14;102054.44;5016913;28;20333;-73
2022/02/09 11:04:11;;;;;;;3.33;1.48;;;;;;;5.80;61.32;102052.72;5028375;28;20036;-72
2022/02/09 11:06:43;;;;;;;8.25;1.95;;;;;;;5.39;62.35;102054.47;5020432;28;20126;-71
2022/02/09 11:09:15;;;;;;;3.65;1.23;;;;;;;4.95;63.08;102051.81;5006971;28;20489;-72
2022/02/09 11:11:42;;;;;;;4.50;1.80;;;;;;;6.08;59.96;102048.31;5033278;28;20033;-73
2022/02/09 11:14:12;;;;;;;7.90;1.55;;;;;;;5.29;61.92;102055.31;5023084;28;20297;-73
2022/02/09 11:16:42;;;;;;;5.10;1.55;;;;;;;5.92;60.60;102046.63;5020792;28;20057;-73
2022/02/09 11:19:09;;;;;;;4.10;1.42;;;;;;;5.54;62.23;102048.41;5023531;28;20059;-73
2022/02/09 11:21:37;;;;;;;6.82;1.63;;;;;;;5.49;61.91;102052.72;5013492;28;20512;-74
2022/02/09 11:24:18;;;;;;;3.77;1.30;;;;;;;5.50;62.36;102051.84;5011498;28;20105;-73
2022/02/09 11:27:08;;;;;;;4.65;1.90;;;;;;;5.94;61.08;102047.50;5024515;28;20295;-74
2022/02/09 11:29:45;;;;;;;2.22;1.55;;;;;;;5.53;62.75;102049.28;5021433;28;20485;-73
2022/02/09 11:32:22;;;;;;;10.18;2.50;;;;;;;5.43;62.81;102047.53;5020436;28;20037;-74
2022/02/09 11:35:10;;;;;;;4.40;1.85;;;;;;;5.56;62.51;102041.47;5020243;28;20071;-74
2022/02/09 11:37:41;;;;;;;5.82;1.45;;;;;;;5.83;60.95;102039.72;5022519;28;20072;-74
2022/02/09 11:40:44;;;;;;;5.43;1.17;;;;;;;5.98;61.08;102047.50;5013310;28;20038;-73
2022/02/09 11:43:21;;;;;;;5.70;1.55;;;;;;;6.00;60.74;102039.72;5015938;28;20411;-74
2022/02/09 12:00:10;;;;;;;3.67;1.70;;;;;;;5.99;60.90;102038.81;5020298;28;20478;-74
2022/02/09 12:11:26;;;;;;;6.85;1.70;;;;;;;6.15;60.97;102046.56;5024602;28;20083;-73
2022/02/09 12:13:57;;;;;;;6.45;1.63;;;;;;;6.22;60.60;102035.34;5021280;28;20041;-73
2022/02/09 12:19:09;;;;;;;7.13;1.45;;;;;;;6.17;60.59;102034.47;5000902;28;20128;-73
2022/02/09 12:24:17;;;;;;;6.35;1.10;;;;;;;6.11;60.73;102037.09;5017286;28;20037;-74
2022/02/09 12:27:07;;;;;;;3.72;1.52;;;;;;;6.47;60.22;102036.13;4994196;28;20091;-73
2022/02/09 12:29:37;;;;;;;5.05;0.95;;;;;;;5.74;62.66;102031.97;5018914;28;20076;-74
2022/02/09 12:32:23;;;;;;;6.47;0.95;;;;;;;6.56;60.02;102033.50;5003319;28;20057;-74
2022/02/09 12:35:03;;;;;;;4.90;0.73;;;;;;;6.17;61.52;102031.88;5005877;28;20342;-74
2022/02/09 12:37:41;;;;;;;6.47;0.90;;;;;;;6.35;60.96;102025.78;5011057;28;20084;-74
2022/02/09 12:40:10;;;;;;;6.28;1.13;;;;;;;6.18;61.46;102028.41;5004048;28;20623;-74
2022/02/09 12:42:38;;;;;;;4.18;0.80;;;;;;;6.35;61.11;102031.84;5015982;28;20546;-73
2022/02/09 12:45:09;;;;;;;2.72;0.57;;;;;;;5.67;62.72;102037.16;5001800;28;20117;-73
2022/02/09 12:47:38;;;;;;;3.00;0.70;;;;;;;6.18;61.75;102033.59;5006915;28;20052;-74
2022/02/09 12:50:12;;;;;;;2.35;0.90;;;;;;;5.79;62.51;102032.81;5009076;28;20034;-73
2022/02/09 12:52:47;;;;;;;3.85;0.50;;;;;;;5.67;63.05;102038.88;4989731;28;20048;-74
2022/02/09 12:55:26;;;;;;;5.43;0.65;;;;;;;5.86;62.62;102039.75;5005964;28;20022;-73
2022/02/09 12:58:01;;;;;;;1.95;0.40;;;;;;;5.89;61.97;102037.13;4990151;28;20087;-73
2022/02/09 13:00:46;;;;;;;1.48;0.65;;;;;;;6.15;61.40;102038.78;5005596;28;20033;-75
2022/02/09 13:03:19;;;;;;;1.70;0.28;;;;;;;6.17;61.72;102037.94;5000835;28;20317;-74
2022/02/09 13:05:50;;;;;;;1.77;0.55;;;;;;;5.86;61.67;102052.72;4999165;28;20038;-74
2022/02/09 13:08:23;;;;;;;0.70;0.30;;;;;;;6.63;59.70;102037.78;5022438;28;20227;-74
2022/02/09 13:10:49;;;;;;;2.42;0.30;;;;;;;6.34;61.15;102063.00;5022607;28;20164;-73
2022/02/09 13:13:27;;;;;;;3.63;0.30;;;;;;;6.61;60.03;102038.66;5017192;28;20033;-73
2022/02/09 13:16:11;;;;;;;1.95;0.30;;;;;;;6.08;61.19;102053.50;5018903;28;20055;-74
2022/02/09 13:54:42;;;;;;;13.60;1.77;;;;;;;5.60;61.22;102063.97;5012832;28;20491;-73
2022/02/09 14:07:09;;;;;;;7.40;1.17;;;;;;;5.94;59.62;102079.50;4998084;28;20033;-73
2022/02/09 14:55:07;;;;;;;6.13;1.52;;;;;;;6.35;57.99;102104.56;5001165;28;20454;-73
2022/02/09 14:57:41;;;;;;;11.93;2.00;;;;;;;6.46;57.12;102101.91;4999202;28;20109;-73
2022/02/09 15:00:13;;;;;;;9.80;1.58;;;;;;;6.67;56.83;102106.19;5002199;28;20061;-73
2022/02/09 15:16:02;;;;;;;10.27;1.23;;;;;;;5.65;58.69;102110.66;5005804;28;20095;-73
2022/02/09 15:23:49;;;;;;;15.77;1.45;;;;;;;6.01;57.64;102109.75;5014718;28;20528;-73
2022/02/09 15:26:17;;;;;;;12.00;1.00;;;;;;;6.67;56.30;102116.56;5022017;28;20052;-73
2022/02/09 15:28:42;;;;;;;24.58;1.75;;;;;;;6.69;55.56;102115.69;5036523;28;20084;-73
2022/02/09 15:31:24;;;;;;;13.23;1.55;;;;;;;6.01;57.18;102116.69;5032801;28;20124;-73
2022/02/09 15:34:03;;;;;;;15.50;2.75;;;;;;;6.34;56.43;102118.41;5036641;28;20111;-74
2022/02/09 15:39:14;;;;;;;8.40;1.58;;;;;;;6.02;57.60;102116.69;5004670;28;20065;-73
2022/02/09 16:23:03;;;;;;;7.00;1.63;;;;;;;5.40;58.19;102146.06;5000023;28;20132;-73
2022/02/09 16:33:52;;;;;;;15.80;2.53;;;;;;;5.90;56.37;102136.59;5005208;28;20075;-72
2022/02/09 16:44:39;;;;;;;12.88;1.67;;;;;;;5.76;56.94;102146.97;5021954;28;20044;-73
2022/02/09 16:47:17;;;;;;;15.77;1.92;;;;;;;5.40;58.07;102148.66;5008981;28;20034;-73
2022/02/09 16:52:35;;;;;;;14.00;1.25;;;;;;;5.70;57.15;102139.19;5020636;28;20490;-73
2022/02/09 17:19:47;;;;;;;11.30;2.67;;;;;;;5.90;56.61;102157.34;5011245;28;20089;-73
2022/02/09 17:22:12;;;;;;;10.25;1.95;;;;;;;5.65;56.82;102163.38;4999040;28;20034;-72
2022/02/09 17:24:41;;;;;;;17.48;2.08;;;;;;;5.93;56.18;102163.41;4999860;28;20247;-73
2022/02/09 17:27:15;;;;;;;9.35;1.63;;;;;;;5.74;56.96;102161.69;5000051;28;20057;-74
2022/02/09 17:33:03;;;;;;;19.73;1.60;;;;;;;5.64;56.57;102172.03;4999263;28;20064;-74
2022/02/09 17:35:04;;;;;;;8.77;1.17;;;;;;;5.82;56.14;102157.38;4995908;28;20073;-73
2022/02/09 17:38:06;;;;;;;2.88;0.60;;;;;;;6.05;54.96;102163.41;4998807;28;20300;-73
2022/02/09 17:56:49;;;;;;;17.30;2.28;;;;;;;5.34;56.53;102177.16;5002266;28;20120;-73
2022/02/09 17:59:23;;;;;;;19.73;2.08;;;;;;;5.04;57.48;102178.78;5006092;28;20040;-73
2022/02/09 18:01:52;;;;;;;8.57;0.95;;;;;;;5.05;56.86;102171.00;4998853;28;20049;-73
2022/02/09 18:04:22;;;;;;;12.15;2.10;;;;;;;5.09;56.82;102171.91;4999248;28;20392;-73
2022/02/09 18:06:56;;;;;;;8.23;1.15;;;;;;;5.12;56.24;102164.13;4987586;28;20034;-72
2022/02/09 18:09:36;;;;;;;15.63;1.42;;;;;;;5.05;57.10;102171.00;4999746;28;20457;-73
2022/02/09 18:12:17;;;;;;;6.63;1.42;;;;;;;4.74;57.42;102175.16;4982860;28;20037;-73
2022/02/09 18:31:13;;;;;;;12.40;1.55;;;;;;;4.97;56.63;102177.03;4999358;28;20518;-73
2022/02/09 18:44:26;;;;;;;12.45;2.20;;;;;;;4.99;56.28;102180.50;4999410;28;20037;-73
2022/02/09 18:46:59;;;;;;;11.37;5.13;;;;;;;4.88;56.46;102174.38;4998587;28;20107;-72
2022/02/09 19:00:48;;;;;;;8.63;1.05;;;;;;;4.87;56.65;102164.88;5021462;28;20041;-74
2022/02/09 19:03:05;;;;;;;6.97;0.50;;;;;;;4.72;56.94;102174.31;5016386;28;20044;-73
2022/02/09 19:05:40;;;;;;;12.18;0.93;;;;;;;4.99;55.83;102165.81;5021648;28;20025;-73
2022/02/09 19:16:38;;;;;;;9.45;1.05;;;;;;;4.70;56.03;102147.53;5020128;28;20406;-73
2022/02/09 19:48:37;;;;;;;12.38;1.75;;;;;;;4.38;56.56;102150.78;4997127;28;20093;-73
2022/02/09 19:53:45;;;;;;;15.35;2.50;;;;;;;4.47;56.16;102149.13;4998842;28;20081;-73
2022/02/09 19:56:20;;;;;;;11.63;2.00;;;;;;;4.46;56.07;102157.75;4999234;28;20061;-73
2022/02/09 19:58:57;;;;;;;15.00;3.58;;;;;;;4.46;55.96;102157.75;5018959;28;20103;-73
2022/02/09 20:01:36;;;;;;;14.95;2.10;;;;;;;4.36;56.58;102156.81;5004067;28;20317;-73
2022/02/09 20:04:08;;;;;;;7.28;1.88;;;;;;;4.39;56.46;102149.94;5008638;28;21303;-73
2022/02/09 20:06:36;;;;;;;8.10;1.35;;;;;;;4.43;56.47;102138.75;5002102;28;20384;-73
2022/02/09 20:09:05;;;;;;;3.50;1.42;;;;;;;4.41;55.85;102137.88;4992744;28;20048;-73
2022/02/09 20:11:31;;;;;;;10.57;1.67;;;;;;;4.29;56.88;102145.53;5000918;28;20332;-73
2022/02/09 20:14:09;;;;;;;15.93;2.28;;;;;;;4.32;56.58;102140.41;5002211;28;20048;-73
2022/02/09 20:16:42;;;;;;;8.75;1.98;;;;;;;4.41;56.38;102140.47;4984600;28;20454;-73
2022/02/09 20:19:10;;;;;;;10.75;1.85;;;;;;;4.39;56.17;102141.31;5001675;28;20175;-73
2022/02/09 20:21:36;;;;;;;9.55;2.22;;;;;;;4.35;55.83;102148.19;5016309;28;20069;-72
2022/02/09 20:24:03;;;;;;;8.35;1.50;;;;;;;4.31;55.52;102143.84;4994606;28;20038;-72
2022/02/09 20:26:32;;;;;;;5.20;1.48;;;;;;;4.18;56.46;102142.03;5019895;28;20563;-73
2022/02/09 20:29:20;;;;;;;14.15;2.17;;;;;;;4.13;56.44;102154.94;5016473;28;20045;-73
2022/02/09 20:31:56;;;;;;;16.27;2.10;;;;;;;3.84;58.18;102152.13;5002273;28;20379;-73
2022/02/09 20:34:28;;;;;;;11.00;1.42;;;;;;;3.92;57.80;102155.63;5001332;28;20026;-74
2022/02/09 20:36:54;;;;;;;9.18;2.15;;;;;;;4.10;56.39;102162.69;4992087;28;20344;-74
2022/02/09 20:39:26;;;;;;;15.38;2.60;;;;;;;3.64;58.35;102153.66;5000920;28;20018;-73
2022/02/09 20:41:54;;;;;;;8.68;2.53;;;;;;;3.89;57.64;102158.19;4999932;28;20247;-73
2022/02/09 20:46:53;;;;;;;12.65;3.30;;;;;;;3.80;57.45;102140.00;4990980;28;20509;-73
2022/02/09 20:49:25;;;;;;;10.85;2.70;;;;;;;3.97;57.60;102141.00;5017426;28;20032;-73
2022/02/09 20:51:51;;;;;;;;;;;;;;;3.97;57.15;102141.00;5014527;28;21776;-73
2022/02/09 20:54:21;;;;;;;6.25;1.67;;;;;;;4.00;57.06;102142.75;5002810;28;19919;-73
2022/02/09 20:56:47;;;;;;;12.15;2.05;;;;;;;3.93;57.26;102140.97;5000146;28;20033;-73
2022/02/09 20:59:15;;;;;;;9.95;1.80;;;;;;;3.65;58.00;102145.03;5017096;28;20418;-73
2022/02/09 21:02:36;;;;;;;16.25;3.15;;;;;;;3.57;58.95;102147.56;4999679;28;20532;-74
2022/02/09 21:04:36;;;;;;;6.38;2.08;;;;;;;3.72;58.74;102152.03;5010885;28;20751;-74
2022/02/09 21:07:12;;;;;;;14.60;2.38;;;;;;;3.88;57.91;102155.59;4993045;28;20047;-73
2022/02/09 21:19:57;;;;;;;8.80;2.10;;;;;;;4.45;57.53;102141.31;5000371;28;20507;-73
2022/02/09 21:25:38;;;;;;;11.55;2.90;;;;;;;4.56;57.05;102146.56;4998237;28;20097;-73
2022/02/09 21:41:52;;;;;;;8.38;3.35;;;;;;;4.61;56.91;102137.13;4981253;28;20117;-73
2022/02/09 21:51:26;;;;;;;9.77;2.80;;;;;;;4.82;55.88;102100.09;5015068;28;20624;-73
2022/02/09 21:58:43;;;;;;;7.32;3.70;;;;;;;4.73;56.22;102115.59;5012069;28;20040;-73
2022/02/09 22:27:35;;;;;;;9.80;3.17;;;;;;;4.55;57.16;102074.94;5049011;28;20533;-79
2022/02/09 22:56:51;;;;;;;14.23;3.78;;;;;;;5.12;56.33;102060.44;4989420;28;20124;-81
2022/02/09 23:02:09;;;;;;;10.05;3.50;;;;;;;5.12;56.26;102055.28;5015649;28;20044;-79
2022/02/09 23:04:58;;;;;;;9.38;3.63;;;;;;;5.08;56.13;102053.56;5069917;28;20028;-78
2022/02/09 23:07:26;;;;;;;10.63;3.53;;;;;;;5.08;56.05;102056.16;5030293;28;20480;-79
2022/02/09 23:10:09;;;;;;;13.50;4.18;;;;;;;5.05;56.32;102050.94;5016414;28;20056;-79
2022/02/09 23:23:12;;;;;;;12.70;4.13;;;;;;;5.07;56.63;102048.38;5048000;28;20057;-79
2022/02/09 23:55:56;;;;;;;15.07;6.72;;;;;;;4.76;57.59;102033.56;5040521;28;20539;-80
